createdAt,value
2023-04-25T00:02:23.816Z,8.88
2023-04-25T00:05:09.342Z,5.95
2023-04-25T00:07:54.703Z,6.65
2023-04-25T00:10:39.977Z,6.28
2023-04-25T00:13:26.480Z,5.85
2023-04-25T00:16:12.600Z,5.60
2023-04-25T00:18:59.719Z,6.18
2023-04-25T00:21:47.250Z,6.93
2023-04-25T00:24:32.589Z,6.35
2023-04-25T00:27:18.003Z,5.60
2023-04-25T00:30:03.705Z,5.38
2023-04-25T00:32:49.913Z,5.97
2023-04-25T00:35:36.376Z,5.57
2023-04-25T00:38:21.293Z,5.65
2023-04-25T00:41:09.748Z,5.28
2023-04-25T00:43:56.828Z,6.10
2023-04-25T00:46:42.463Z,5.47
2023-04-25T00:49:27.829Z,5.40
2023-04-25T00:52:13.607Z,4.65
2023-04-25T00:54:58.938Z,4.25
2023-04-25T00:57:44.284Z,4.50
2023-04-25T01:00:29.978Z,4.82
2023-04-25T01:03:17.516Z,4.72
2023-04-25T01:06:03.831Z,4.90
2023-04-25T01:08:48.967Z,4.55
2023-04-25T01:11:34.460Z,3.92
2023-04-25T01:14:19.784Z,4.40
2023-04-25T01:17:05.164Z,4.15
2023-04-25T01:19:51.726Z,4.88
2023-04-25T01:22:37.080Z,4.78
2023-04-25T01:25:23.678Z,3.47
2023-04-25T01:28:08.947Z,3.85
2023-04-25T01:30:54.436Z,4.45
2023-04-25T01:33:39.812Z,3.97
2023-04-25T01:36:25.051Z,4.72
2023-04-25T01:39:11.011Z,3.88
2023-04-25T01:41:57.571Z,3.78
2023-04-25T01:44:43.349Z,4.03
2023-04-25T01:47:30.097Z,4.10
2023-04-25T01:50:19.800Z,3.73
2023-04-25T01:53:05.839Z,4.40
2023-04-25T01:55:50.851Z,4.20
2023-04-25T01:58:36.109Z,4.05
2023-04-25T02:01:21.523Z,4.75
2023-04-25T02:04:07.011Z,4.68
2023-04-25T02:06:51.977Z,3.53
2023-04-25T02:09:37.350Z,3.17
2023-04-25T02:12:22.796Z,4.05
2023-04-25T02:15:08.399Z,3.28
2023-04-25T02:17:56.416Z,3.97
2023-04-25T02:20:41.847Z,3.70
2023-04-25T02:23:27.273Z,4.38
2023-04-25T02:26:14.391Z,3.83
2023-04-25T02:28:59.447Z,3.28
2023-04-25T02:31:44.887Z,3.88
2023-04-25T02:34:30.138Z,4.68
2023-04-25T02:37:15.760Z,3.83
2023-04-25T02:40:01.062Z,3.70
2023-04-25T02:42:49.395Z,3.83
2023-04-25T02:45:34.598Z,3.35
2023-04-25T02:48:19.841Z,3.42
2023-04-25T02:51:05.296Z,3.35
2023-04-25T02:53:50.714Z,4.22
2023-04-25T02:56:36.285Z,4.03
2023-04-25T02:59:21.479Z,4.10
2023-04-25T03:02:06.714Z,3.65
2023-04-25T03:04:52.124Z,2.45
2023-04-25T03:07:37.466Z,2.15
2023-04-25T03:10:22.868Z,1.90
2023-04-25T03:13:08.317Z,1.67
2023-04-25T03:15:53.594Z,1.23
2023-04-25T03:18:38.845Z,2.30
2023-04-25T03:21:24.654Z,1.83
2023-04-25T03:24:10.084Z,1.50
2023-04-25T03:26:55.270Z,1.60
2023-04-25T03:29:41.860Z,1.33
2023-04-25T03:32:27.042Z,1.35
2023-04-25T03:35:12.195Z,1.52
2023-04-25T03:37:57.455Z,1.23
2023-04-25T03:40:42.855Z,1.23
2023-04-25T03:43:28.163Z,1.60
2023-04-25T03:46:13.539Z,1.10
2023-04-25T03:49:00.201Z,1.10
2023-04-25T03:51:45.274Z,1.10
2023-04-25T03:54:30.840Z,0.80
2023-04-25T03:57:16.021Z,1.27
2023-04-25T04:00:01.449Z,1.10
2023-04-25T04:02:46.672Z,0.98
2023-04-25T04:05:32.120Z,0.90
2023-04-25T04:08:17.050Z,0.80
2023-04-25T04:11:02.604Z,0.80
2023-04-25T04:13:47.923Z,1.00
2023-04-25T04:16:36.275Z,1.25
2023-04-25T04:19:21.678Z,0.55
2023-04-25T04:22:06.995Z,0.75
2023-04-25T04:24:52.262Z,0.65
2023-04-25T04:27:37.640Z,0.82
2023-04-25T04:30:30.399Z,0.82
2023-04-25T04:33:16.168Z,0.80
2023-04-25T04:36:02.006Z,0.80
2023-04-25T04:38:46.969Z,0.80
2023-04-25T04:41:32.240Z,0.60
2023-04-25T04:44:17.599Z,0.93
2023-04-25T04:47:04.781Z,0.60
2023-04-25T04:49:50.335Z,0.70
2023-04-25T04:52:36.813Z,0.80
2023-04-25T04:55:22.201Z,0.95
2023-04-25T04:58:08.281Z,0.80
2023-04-25T05:00:53.443Z,0.70
2023-04-25T05:03:38.936Z,0.70
2023-04-25T05:06:24.371Z,0.70
2023-04-25T05:09:09.582Z,0.63
2023-04-25T05:11:54.994Z,0.75
2023-04-25T05:14:40.234Z,1.10
2023-04-25T05:17:25.706Z,0.90
2023-04-25T05:20:11.369Z,1.02
2023-04-25T05:22:56.456Z,0.90
2023-04-25T05:25:41.886Z,0.77
2023-04-25T05:28:27.170Z,0.60
2023-04-25T05:31:12.702Z,0.80
2023-04-25T05:33:57.589Z,0.77
2023-04-25T05:36:43.070Z,1.00
2023-04-25T05:39:28.350Z,0.85
2023-04-25T05:42:13.658Z,1.10
2023-04-25T05:44:59.074Z,0.90
2023-04-25T05:47:44.359Z,1.35
2023-04-25T05:50:30.284Z,1.00
2023-04-25T05:53:15.556Z,1.20
2023-04-25T05:56:01.257Z,0.85
2023-04-25T05:58:46.526Z,1.30
2023-04-25T06:01:32.347Z,1.15
2023-04-25T06:04:18.200Z,1.23
2023-04-25T06:07:03.610Z,1.20
2023-04-25T06:09:48.964Z,1.27
2023-04-25T06:12:34.518Z,1.20
2023-04-25T06:18:08.216Z,1.10
2023-04-25T06:20:53.345Z,1.38
2023-04-25T06:23:38.332Z,1.38
2023-04-25T06:26:23.804Z,1.58
2023-04-25T06:29:08.963Z,2.10
2023-04-25T06:31:54.539Z,1.70
2023-04-25T06:34:39.842Z,2.05
2023-04-25T06:37:25.259Z,1.30
2023-04-25T06:40:10.649Z,1.00
2023-04-25T06:42:55.799Z,1.30
2023-04-25T06:45:41.184Z,1.30
2023-04-25T06:48:26.418Z,1.40
2023-04-25T06:51:11.616Z,1.70
2023-04-25T06:53:57.200Z,1.00
2023-04-25T06:56:42.463Z,1.30
2023-04-25T06:59:28.029Z,1.05
2023-04-25T07:02:13.152Z,1.75
2023-04-25T07:05:00.853Z,2.15
2023-04-25T07:07:46.524Z,0.98
2023-04-25T07:10:31.799Z,1.15
2023-04-25T07:13:17.249Z,1.27
2023-04-25T07:16:02.598Z,1.20
2023-04-25T07:18:48.121Z,2.00
2023-04-25T07:21:33.898Z,2.30
2023-04-25T07:24:19.416Z,1.60
2023-04-25T07:27:04.773Z,1.77
2023-04-25T07:29:49.987Z,1.02
2023-04-25T07:32:36.053Z,1.00
2023-04-25T07:35:21.354Z,1.33
2023-04-25T07:38:07.727Z,1.70
2023-04-25T07:40:53.400Z,9.27
2023-04-25T07:43:38.632Z,2.80
2023-04-25T07:46:24.203Z,1.90
2023-04-25T07:49:09.691Z,1.55
2023-04-25T07:51:55.040Z,2.92
2023-04-25T07:54:40.548Z,1.85
2023-04-25T07:57:25.863Z,1.90
2023-04-25T08:00:12.197Z,44.70
2023-04-25T08:02:57.292Z,4.80
2023-04-25T08:05:42.755Z,3.58
2023-04-25T08:08:28.171Z,1.75
2023-04-25T08:11:13.368Z,1.13
2023-04-25T08:13:58.921Z,2.20
2023-04-25T08:16:44.594Z,0.80
2023-04-25T08:19:29.874Z,1.17
2023-04-25T08:22:15.816Z,2.28
2023-04-25T08:25:01.099Z,3.78
2023-04-25T08:27:46.709Z,2.50
2023-04-25T08:30:32.114Z,1.58
2023-04-25T08:33:17.551Z,1.17
2023-04-25T08:36:03.522Z,1.50
2023-04-25T08:38:48.670Z,1.35
2023-04-25T08:41:34.170Z,0.90
2023-04-25T08:44:20.792Z,1.10
2023-04-25T08:47:06.882Z,1.17
2023-04-25T08:49:55.107Z,1.10
2023-04-25T08:52:47.145Z,1.00
2023-04-25T08:55:32.977Z,1.13
2023-04-25T08:58:19.424Z,1.10
2023-04-25T09:01:04.892Z,1.08
2023-04-25T09:03:50.498Z,0.95
2023-04-25T09:06:36.109Z,1.45
2023-04-25T09:09:21.684Z,1.45
2023-04-25T09:12:06.823Z,1.80
2023-04-25T09:15:11.904Z,2.15
2023-04-25T09:17:58.780Z,1.85
2023-04-25T09:21:00.743Z,1.65
2023-04-25T09:23:49.726Z,1.80
2023-04-25T09:26:35.514Z,1.75
2023-04-25T09:29:30.371Z,1.40
2023-04-25T09:32:15.701Z,1.95
2023-04-25T09:35:00.878Z,1.25
2023-04-25T09:37:47.031Z,1.60
2023-04-25T09:40:33.075Z,1.50
2023-04-25T09:43:25.516Z,1.80
2023-04-25T09:46:12.538Z,1.33
2023-04-25T09:48:58.158Z,1.52
2023-04-25T09:51:54.453Z,1.40
2023-04-25T09:54:39.954Z,1.50
2023-04-25T09:57:25.534Z,1.80
2023-04-25T10:00:13.960Z,1.83
2023-04-25T10:03:04.790Z,2.47
2023-04-25T10:05:50.381Z,1.63
2023-04-25T10:08:37.886Z,2.20
2023-04-25T10:11:25.894Z,2.10
2023-04-25T10:14:13.403Z,2.25
2023-04-25T10:16:59.728Z,2.42
2023-04-25T10:19:45.750Z,2.83
2023-04-25T10:22:35.298Z,2.67
2023-04-25T10:25:20.315Z,2.50
2023-04-25T10:28:06.258Z,3.60
2023-04-25T10:30:58.013Z,3.72
2023-04-25T10:33:44.177Z,3.88
2023-04-25T10:36:33.098Z,3.53
2023-04-25T10:39:24.269Z,3.42
2023-04-25T10:42:09.505Z,4.13
2023-04-25T10:45:06.583Z,3.35
2023-04-25T10:47:52.320Z,3.55
2023-04-25T10:50:40.809Z,2.90
2023-04-25T10:53:26.255Z,3.15
2023-04-25T10:56:22.468Z,3.00
2023-04-25T10:59:12.955Z,2.95
2023-04-25T11:01:58.589Z,3.63
2023-04-25T11:04:45.545Z,2.90
2023-04-25T11:08:03.814Z,3.58
2023-04-25T11:13:37.270Z,4.10
2023-04-25T11:16:28.399Z,4.70
2023-04-25T11:19:13.794Z,3.95
2023-04-25T11:22:01.232Z,6.05
2023-04-25T11:24:46.806Z,8.02
2023-04-25T11:27:31.997Z,5.57
2023-04-25T11:30:17.977Z,4.32
2023-04-25T11:33:04.392Z,4.55
2023-04-25T11:35:50.072Z,3.08
2023-04-25T11:38:35.543Z,4.50
2023-04-25T11:41:23.626Z,3.42
2023-04-25T11:44:08.974Z,3.85
2023-04-25T11:46:54.268Z,3.70
2023-04-25T11:49:39.636Z,3.13
2023-04-25T11:52:25.034Z,2.80
2023-04-25T11:55:18.736Z,2.90
2023-04-25T11:58:05.057Z,3.20
2023-04-25T12:00:51.039Z,4.55
2023-04-25T12:03:46.947Z,2.65
2023-04-25T12:06:32.844Z,2.50
2023-04-25T12:09:29.437Z,3.83
2023-04-25T12:12:14.422Z,3.33
2023-04-25T12:15:12.454Z,3.92
2023-04-25T12:17:57.610Z,3.45
2023-04-25T12:20:43.760Z,3.15
2023-04-25T12:23:29.751Z,2.75
2023-04-25T12:26:15.361Z,2.95
2023-04-25T12:29:01.355Z,3.40
2023-04-25T12:31:46.936Z,3.15
2023-04-25T12:34:33.420Z,3.22
2023-04-25T12:37:18.535Z,5.32
2023-04-25T12:40:05.322Z,3.40
2023-04-25T12:42:50.790Z,3.75
2023-04-25T12:45:36.304Z,4.05
2023-04-25T12:48:22.343Z,2.90
2023-04-25T12:51:07.479Z,2.70
2023-04-25T12:53:53.169Z,2.92
2023-04-25T12:56:38.255Z,3.38
2023-04-25T12:59:24.118Z,2.85
2023-04-25T13:02:09.065Z,3.65
2023-04-25T13:04:54.272Z,2.17
2023-04-25T13:07:39.683Z,2.72
2023-04-25T13:10:24.624Z,2.92
2023-04-25T13:13:09.767Z,4.00
2023-04-25T13:15:54.962Z,3.13
2023-04-25T13:18:39.911Z,2.40
2023-04-25T13:21:25.269Z,3.33
2023-04-25T13:24:10.299Z,2.38
2023-04-25T13:26:55.794Z,4.35
2023-04-25T13:29:41.596Z,3.17
2023-04-25T13:32:26.881Z,2.70
2023-04-25T13:35:14.792Z,4.22
2023-04-25T13:38:00.316Z,6.87
2023-04-25T13:40:46.600Z,7.35
2023-04-25T13:43:33.151Z,4.32
2023-04-25T13:49:12.739Z,40.88
2023-04-25T13:51:58.631Z,16.45
2023-04-25T13:54:43.755Z,9.70
2023-04-25T13:57:29.025Z,5.47
2023-04-25T14:00:14.814Z,6.57
2023-04-25T14:03:00.159Z,6.55
2023-04-25T14:05:45.675Z,3.75
2023-04-25T14:08:31.048Z,5.50
2023-04-25T14:11:16.232Z,4.60
2023-04-25T14:14:01.729Z,5.35
2023-04-25T14:16:49.246Z,3.95
2023-04-25T14:19:34.414Z,5.53
2023-04-25T14:22:20.151Z,6.78
2023-04-25T14:25:06.372Z,4.22
2023-04-25T14:27:51.841Z,4.78
2023-04-25T14:30:37.174Z,4.35
2023-04-25T14:33:22.132Z,3.13
2023-04-25T14:36:07.612Z,3.92
2023-04-25T14:38:54.012Z,3.30
2023-04-25T14:41:39.273Z,4.03
2023-04-25T14:44:24.356Z,4.03
2023-04-25T14:47:09.852Z,3.65
2023-04-25T14:49:55.495Z,4.63
2023-04-25T14:52:40.861Z,6.25
2023-04-25T14:55:26.524Z,5.60
2023-04-25T14:58:11.923Z,6.95
2023-04-25T15:00:57.291Z,4.38
2023-04-25T15:03:42.901Z,5.90
2023-04-25T15:06:29.877Z,6.53
2023-04-25T15:09:14.981Z,6.22
2023-04-25T15:12:00.456Z,4.53
2023-04-25T15:14:46.395Z,4.45
2023-04-25T15:17:32.157Z,9.90
2023-04-25T15:20:18.245Z,5.20
2023-04-25T15:23:04.507Z,4.25
2023-04-25T15:25:53.000Z,4.35
2023-04-25T15:28:38.112Z,5.00
2023-04-25T15:31:23.569Z,14.80
2023-04-25T15:34:08.927Z,5.70
2023-04-25T15:36:54.186Z,5.97
2023-04-25T15:39:39.539Z,9.10
2023-04-25T15:42:24.704Z,4.50
2023-04-25T15:45:12.094Z,5.07
2023-04-25T15:47:57.350Z,4.95
2023-04-25T15:50:42.774Z,5.20
2023-04-25T15:53:27.728Z,3.95
2023-04-25T15:56:12.989Z,7.38
2023-04-25T15:58:58.210Z,5.03
2023-04-25T16:01:43.453Z,4.90
2023-04-25T16:04:35.393Z,3.70
2023-04-25T16:07:20.574Z,5.50
2023-04-25T16:10:06.548Z,5.82
2023-04-25T16:12:52.208Z,6.22
2023-04-25T16:15:37.236Z,3.83
2023-04-25T16:18:22.772Z,4.18
2023-04-25T16:21:08.169Z,4.07
2023-04-25T16:23:53.439Z,5.15
2023-04-25T16:26:38.445Z,5.50
2023-04-25T16:29:23.359Z,4.93
2023-04-25T16:32:09.119Z,4.18
2023-04-25T16:34:54.243Z,4.63
2023-04-25T16:37:39.491Z,5.32
2023-04-25T16:40:24.614Z,5.07
2023-04-25T16:43:09.861Z,4.55
2023-04-25T16:45:54.929Z,5.30
2023-04-25T16:48:40.095Z,6.05
2023-04-25T16:51:25.191Z,6.88
2023-04-25T16:54:10.352Z,8.70
2023-04-25T16:56:55.465Z,13.77
2023-04-25T16:59:41.474Z,12.85
2023-04-25T17:02:27.309Z,14.82
2023-04-25T17:05:13.627Z,12.82
2023-04-25T17:07:59.020Z,10.10
2023-04-25T17:10:44.244Z,10.52
2023-04-25T17:13:30.930Z,9.32
2023-04-25T17:16:22.924Z,8.02
2023-04-25T17:19:08.765Z,7.40
2023-04-25T17:21:54.173Z,5.70
2023-04-25T17:24:40.771Z,6.85
2023-04-25T17:27:26.558Z,6.65
2023-04-25T17:30:12.650Z,7.00
2023-04-25T17:32:59.578Z,10.48
2023-04-25T17:35:45.113Z,11.00
2023-04-25T17:38:30.502Z,7.45
2023-04-25T17:41:15.939Z,6.95
2023-04-25T17:44:01.384Z,9.75
2023-04-25T17:46:47.074Z,7.72
2023-04-25T17:49:33.708Z,8.15
2023-04-25T17:52:19.072Z,7.82
2023-04-25T17:55:08.474Z,6.13
2023-04-25T17:57:53.358Z,5.53
2023-04-25T18:00:39.174Z,4.75
2023-04-25T18:03:24.604Z,7.03
2023-04-25T18:06:10.292Z,11.05
2023-04-25T18:08:57.188Z,15.27
2023-04-25T18:11:46.462Z,9.13
2023-04-25T18:14:33.808Z,9.00
2023-04-25T18:17:19.150Z,11.10
2023-04-25T18:20:06.469Z,10.68
2023-04-25T18:22:51.451Z,12.75
2023-04-25T18:25:36.663Z,11.45
2023-04-25T18:28:22.351Z,13.70
2023-04-25T18:31:09.475Z,11.07
2023-04-25T18:33:54.936Z,10.63
2023-04-25T18:36:40.661Z,10.05
2023-04-25T18:39:27.262Z,15.15
2023-04-25T18:42:12.953Z,10.80
2023-04-25T18:44:58.211Z,12.38
2023-04-25T18:47:43.333Z,9.45
2023-04-25T18:50:28.595Z,12.70
2023-04-25T18:53:13.776Z,14.38
2023-04-25T18:55:59.008Z,9.75
2023-04-25T18:58:44.060Z,9.48
2023-04-25T19:01:29.502Z,7.80
2023-04-25T19:04:15.144Z,11.10
2023-04-25T19:07:00.546Z,7.35
2023-04-25T19:09:45.781Z,5.38
2023-04-25T19:12:50.236Z,5.32
2023-04-25T19:15:35.426Z,5.07
2023-04-25T19:18:20.412Z,6.80
2023-04-25T19:21:06.911Z,6.47
2023-04-25T19:23:54.401Z,6.75
2023-04-25T19:26:40.071Z,5.63
2023-04-25T19:29:25.436Z,6.13
2023-04-25T19:32:11.448Z,6.53
2023-04-25T19:34:56.649Z,6.05
2023-04-25T19:37:47.014Z,6.65
2023-04-25T19:40:32.759Z,6.85
2023-04-25T19:43:18.496Z,13.63
2023-04-25T19:46:04.371Z,15.13
2023-04-25T19:48:49.962Z,5.47
2023-04-25T19:51:36.654Z,16.25
2023-04-25T19:54:23.337Z,33.58
2023-04-25T19:57:09.558Z,23.25
2023-04-25T19:59:54.815Z,6.95
2023-04-25T20:02:41.127Z,5.13
2023-04-25T20:05:27.118Z,7.43
2023-04-25T20:08:12.137Z,4.97
2023-04-25T20:10:57.406Z,5.32
2023-04-25T20:13:42.754Z,4.82
2023-04-25T20:16:28.045Z,4.97
2023-04-25T20:19:13.472Z,4.90
2023-04-25T20:21:58.780Z,5.82
2023-04-25T20:24:43.971Z,6.45
2023-04-25T20:27:29.760Z,10.27
2023-04-25T20:30:15.547Z,10.90
2023-04-25T20:33:02.173Z,10.30
2023-04-25T20:35:48.527Z,8.30
2023-04-25T20:38:33.799Z,6.70
2023-04-25T20:41:20.183Z,5.65
2023-04-25T20:44:05.297Z,5.60
2023-04-25T20:46:51.573Z,5.20
2023-04-25T20:49:36.963Z,9.88
2023-04-25T20:52:22.858Z,5.43
2023-04-25T20:55:08.566Z,7.05
2023-04-25T20:57:53.417Z,9.55
2023-04-25T21:00:39.093Z,11.27
2023-04-25T21:03:26.208Z,9.95
2023-04-25T21:06:11.414Z,7.85
2023-04-25T21:08:56.576Z,10.15
2023-04-25T21:11:41.928Z,8.65
2023-04-25T21:14:27.373Z,16.60
2023-04-25T21:17:12.720Z,8.73
2023-04-25T21:19:57.832Z,7.03
2023-04-25T21:22:50.257Z,6.82
2023-04-25T21:25:37.185Z,8.05
2023-04-25T21:28:23.396Z,4.80
2023-04-25T21:31:08.914Z,5.07
2023-04-25T21:33:54.476Z,5.35
2023-04-25T21:36:41.280Z,12.55
2023-04-25T21:39:26.619Z,12.10
2023-04-25T21:42:11.978Z,19.63
2023-04-25T21:44:57.636Z,19.70
2023-04-25T21:47:42.980Z,18.67
2023-04-25T21:50:28.274Z,14.32
2023-04-25T21:53:13.644Z,14.38
2023-04-25T21:55:58.827Z,17.05
2023-04-25T21:58:44.079Z,20.13
2023-04-25T22:01:29.468Z,18.38
2023-04-25T22:04:14.982Z,19.05
2023-04-25T22:07:01.139Z,15.98
2023-04-25T22:09:54.219Z,15.85
2023-04-25T22:12:40.439Z,11.90
2023-04-25T22:15:25.691Z,12.50
2023-04-25T22:18:11.220Z,10.55
2023-04-25T22:20:56.589Z,8.48
2023-04-25T22:23:41.824Z,7.43
2023-04-25T22:26:27.195Z,10.13
2023-04-25T22:29:12.540Z,8.77
2023-04-25T22:31:58.763Z,7.43
2023-04-25T22:34:43.842Z,7.55
2023-04-25T22:37:29.746Z,7.50
2023-04-25T22:40:15.515Z,7.60
2023-04-25T22:43:00.850Z,7.93
2023-04-25T22:45:46.042Z,7.03
2023-04-25T22:48:31.356Z,6.72
2023-04-25T22:51:16.988Z,7.43
2023-04-25T22:54:01.940Z,6.78
2023-04-25T22:56:47.312Z,5.95
2023-04-25T22:59:32.743Z,6.50
2023-04-25T23:02:18.465Z,6.45
2023-04-25T23:05:06.890Z,7.25
2023-04-25T23:07:52.505Z,6.18
2023-04-25T23:10:37.713Z,7.60
2023-04-25T23:13:23.421Z,8.07
2023-04-25T23:16:09.869Z,7.38
2023-04-25T23:18:55.376Z,6.63
2023-04-25T23:21:40.368Z,7.07
2023-04-25T23:24:25.935Z,7.60
2023-04-25T23:27:11.292Z,7.07
2023-04-25T23:29:57.872Z,6.53
2023-04-25T23:32:43.141Z,7.88
2023-04-25T23:35:28.800Z,7.47
2023-04-25T23:38:14.152Z,6.97
2023-04-25T23:40:59.153Z,7.65
2023-04-25T23:43:44.544Z,7.03
2023-04-25T23:46:30.243Z,8.85
2023-04-25T23:49:15.868Z,7.55
2023-04-25T23:52:01.068Z,8.88
2023-04-25T23:54:46.286Z,9.15
2023-04-25T23:57:32.417Z,9.40
